createdAt,value
2022-11-25T00:00:01.471Z,1011.72
2022-11-25T00:01:01.720Z,1011.67
2022-11-25T00:02:01.981Z,1011.70
2022-11-25T00:03:02.293Z,1011.65
2022-11-25T00:04:02.556Z,1011.67
2022-11-25T00:05:02.805Z,1011.65
2022-11-25T00:06:03.055Z,1011.69
2022-11-25T00:07:03.312Z,1011.69
2022-11-25T00:08:03.552Z,1011.64
2022-11-25T00:09:03.817Z,1011.71
2022-11-25T00:10:04.054Z,1011.67
2022-11-25T00:11:04.305Z,1011.63
2022-11-25T00:12:04.535Z,1011.63
2022-11-25T00:13:04.796Z,1011.63
2022-11-25T00:14:05.083Z,1011.55
2022-11-25T00:15:05.328Z,1011.63
2022-11-25T00:16:05.641Z,1011.60
2022-11-25T00:17:06.011Z,1011.62
2022-11-25T00:18:06.173Z,1011.59
2022-11-25T00:19:06.415Z,1011.62
2022-11-25T00:20:06.655Z,1011.57
2022-11-25T00:21:06.915Z,1011.60
2022-11-25T00:22:07.177Z,1011.65
2022-11-25T00:23:07.435Z,1011.70
2022-11-25T00:24:07.699Z,1011.73
2022-11-25T00:25:07.935Z,1011.72
2022-11-25T00:26:08.181Z,1011.73
2022-11-25T00:27:08.416Z,1011.78
2022-11-25T00:28:08.696Z,1011.75
2022-11-25T00:29:08.947Z,1011.69
2022-11-25T00:30:09.187Z,1011.70
2022-11-25T00:31:09.437Z,1011.76
2022-11-25T00:32:09.730Z,1011.75
2022-11-25T00:33:09.987Z,1011.76
2022-11-25T00:34:10.239Z,1011.85
2022-11-25T00:35:10.488Z,1011.80
2022-11-25T00:36:10.733Z,1011.82
2022-11-25T00:37:10.966Z,1011.78
2022-11-25T00:38:11.229Z,1011.78
2022-11-25T00:39:11.459Z,1011.81
2022-11-25T00:40:11.710Z,1011.79
2022-11-25T00:41:11.960Z,1011.80
2022-11-25T00:42:12.200Z,1011.72
2022-11-25T00:43:12.451Z,1011.74
2022-11-25T00:44:12.750Z,1011.73
2022-11-25T00:45:13.052Z,1011.79
2022-11-25T00:46:13.339Z,1011.73
2022-11-25T00:47:13.594Z,1011.77
2022-11-25T00:48:13.850Z,1011.74
2022-11-25T00:49:14.089Z,1011.78
2022-11-25T00:50:14.355Z,1011.81
2022-11-25T00:51:14.602Z,1011.78
2022-11-25T00:52:14.840Z,1011.73
2022-11-25T00:53:15.120Z,1011.76
2022-11-25T00:54:15.371Z,1011.77
2022-11-25T00:55:15.621Z,1011.73
2022-11-25T00:56:15.871Z,1011.80
2022-11-25T00:57:16.132Z,1011.83
2022-11-25T00:58:16.390Z,1011.80
2022-11-25T00:59:16.639Z,1011.86
2022-11-25T01:00:16.901Z,1011.88
2022-11-25T01:01:17.183Z,1011.87
2022-11-25T01:02:17.552Z,1011.90
2022-11-25T01:03:17.752Z,1011.92
2022-11-25T01:04:18.002Z,1011.89
2022-11-25T01:05:18.253Z,1011.90
2022-11-25T01:06:19.250Z,1011.94
2022-11-25T01:07:18.898Z,1011.98
2022-11-25T01:08:19.123Z,1011.91
2022-11-25T01:09:19.407Z,1012.02
2022-11-25T01:10:19.653Z,1011.95
2022-11-25T01:11:19.902Z,1011.96
2022-11-25T01:12:20.154Z,1012.01
2022-11-25T01:13:20.427Z,1012.03
2022-11-25T01:14:20.676Z,1011.96
2022-11-25T01:15:20.934Z,1012.00
2022-11-25T01:16:21.259Z,1011.93
2022-11-25T01:17:21.448Z,1011.91
2022-11-25T01:18:21.720Z,1011.95
2022-11-25T01:19:21.955Z,1011.92
2022-11-25T01:20:22.204Z,1011.93
2022-11-25T01:21:22.454Z,1011.92
2022-11-25T01:22:22.676Z,1011.89
2022-11-25T01:23:22.957Z,1011.87
2022-11-25T01:24:24.203Z,1011.89
2022-11-25T01:25:23.475Z,1011.83
2022-11-25T01:26:25.168Z,1011.89
2022-11-25T01:27:23.968Z,1011.91
2022-11-25T01:28:24.230Z,1011.84
2022-11-25T01:29:24.481Z,1011.89
2022-11-25T01:30:24.735Z,1011.88
2022-11-25T01:31:25.050Z,1011.82
2022-11-25T01:32:25.309Z,1011.84
2022-11-25T01:33:25.587Z,1011.88
2022-11-25T01:34:25.848Z,1011.84
2022-11-25T01:35:26.080Z,1011.88
2022-11-25T01:36:26.347Z,1011.93
2022-11-25T01:37:26.618Z,1011.85
2022-11-25T01:38:26.916Z,1011.85
2022-11-25T01:39:32.469Z,1011.89
2022-11-25T01:40:28.401Z,1011.85
2022-11-25T01:41:27.719Z,1011.82
2022-11-25T01:42:27.968Z,1011.84
2022-11-25T01:43:28.228Z,1011.89
2022-11-25T01:44:28.477Z,1011.89
2022-11-25T01:45:28.970Z,1011.82
2022-11-25T01:46:29.069Z,1011.82
2022-11-25T01:47:29.329Z,1011.87
2022-11-25T01:48:29.618Z,1011.87
2022-11-25T01:49:29.886Z,1011.88
2022-11-25T01:50:30.114Z,1011.82
2022-11-25T01:51:30.360Z,1011.78
2022-11-25T01:52:30.588Z,1011.79
2022-11-25T01:53:30.854Z,1011.80
2022-11-25T01:54:31.092Z,1011.80
2022-11-25T01:55:31.349Z,1011.74
2022-11-25T01:56:31.583Z,1011.79
2022-11-25T01:57:31.811Z,1011.80
2022-11-25T01:58:32.071Z,1011.77
2022-11-25T01:59:32.345Z,1011.81
2022-11-25T02:00:32.605Z,1011.79
2022-11-25T02:01:32.928Z,1011.78
2022-11-25T02:02:33.240Z,1011.76
2022-11-25T02:03:33.571Z,1011.72
2022-11-25T02:04:34.329Z,1011.74
2022-11-25T02:05:34.207Z,1011.70
2022-11-25T02:06:34.403Z,1011.71
2022-11-25T02:07:34.690Z,1011.74
2022-11-25T02:08:34.957Z,1011.65
2022-11-25T02:09:35.195Z,1011.68
2022-11-25T02:10:35.443Z,1011.62
2022-11-25T02:11:35.705Z,1011.63
2022-11-25T02:12:35.961Z,1011.61
2022-11-25T02:13:36.205Z,1011.63
2022-11-25T02:14:36.774Z,1011.50
2022-11-25T02:15:36.723Z,1011.53
2022-11-25T02:16:37.107Z,1011.54
2022-11-25T02:17:37.319Z,1011.50
2022-11-25T02:18:37.562Z,1011.55
2022-11-25T02:19:37.805Z,1011.52
2022-11-25T02:20:38.087Z,1011.41
2022-11-25T02:21:38.337Z,1011.42
2022-11-25T02:22:38.587Z,1011.41
2022-11-25T02:23:38.855Z,1011.35
2022-11-25T02:24:39.107Z,1011.36
2022-11-25T02:25:39.355Z,1011.32
2022-11-25T02:26:39.660Z,1011.31
2022-11-25T02:27:39.926Z,1011.36
2022-11-25T02:28:40.187Z,1011.39
2022-11-25T02:29:40.435Z,1011.34
2022-11-25T02:30:40.682Z,1011.43
2022-11-25T02:31:41.001Z,1011.51
2022-11-25T02:32:41.257Z,1011.60
2022-11-25T02:33:41.507Z,1011.62
2022-11-25T02:34:41.741Z,1011.57
2022-11-25T02:35:42.000Z,1011.56
2022-11-25T02:36:42.259Z,1011.55
2022-11-25T02:37:42.535Z,1011.51
2022-11-25T02:38:42.777Z,1011.49
2022-11-25T02:39:43.029Z,1011.49
2022-11-25T02:40:43.269Z,1011.47
2022-11-25T02:41:43.516Z,1011.51
2022-11-25T02:42:43.792Z,1011.54
2022-11-25T02:43:44.061Z,1011.51
2022-11-25T02:44:44.298Z,1011.51
2022-11-25T02:45:44.611Z,1011.60
2022-11-25T02:46:44.899Z,1011.55
2022-11-25T02:47:45.149Z,1011.63
2022-11-25T02:49:07.959Z,1011.57
2022-11-25T02:49:46.670Z,1011.62
2022-11-25T02:50:46.001Z,1011.62
2022-11-25T02:51:46.261Z,1011.62
2022-11-25T02:52:46.522Z,1011.62
2022-11-25T02:53:46.813Z,1011.67
2022-11-25T02:54:47.060Z,1011.67
2022-11-25T02:55:47.313Z,1011.73
2022-11-25T02:56:47.570Z,1011.64
2022-11-25T02:57:47.834Z,1011.71
2022-11-25T02:58:48.100Z,1011.68
2022-11-25T02:59:48.361Z,1011.68
2022-11-25T03:00:48.651Z,1011.71
2022-11-25T03:01:48.905Z,1011.72
2022-11-25T03:02:49.181Z,1011.68
2022-11-25T03:03:49.452Z,1011.69
2022-11-25T03:04:49.681Z,1011.73
2022-11-25T03:05:49.948Z,1011.70
2022-11-25T03:06:50.206Z,1011.68
2022-11-25T03:07:50.510Z,1011.71
2022-11-25T03:08:50.763Z,1011.71
2022-11-25T03:09:51.004Z,1011.70
2022-11-25T03:10:51.243Z,1011.73
2022-11-25T03:11:51.493Z,1011.72
2022-11-25T03:12:51.730Z,1011.73
2022-11-25T03:13:52.005Z,1011.68
2022-11-25T03:14:52.243Z,1011.77
2022-11-25T03:15:52.514Z,1011.72
2022-11-25T03:16:52.827Z,1011.76
2022-11-25T03:17:53.084Z,1011.80
2022-11-25T03:18:53.345Z,1011.72
2022-11-25T03:19:53.584Z,1011.75
2022-11-25T03:20:53.826Z,1011.76
2022-11-25T03:21:54.081Z,1011.76
2022-11-25T03:22:54.306Z,1011.81
2022-11-25T03:23:54.575Z,1011.79
2022-11-25T03:24:54.836Z,1011.72
2022-11-25T03:25:55.096Z,1011.78
2022-11-25T03:26:55.345Z,1011.76
2022-11-25T03:27:55.587Z,1011.79
2022-11-25T03:29:04.814Z,1011.78
2022-11-25T03:29:56.111Z,1011.74
2022-11-25T03:30:56.360Z,1011.71
2022-11-25T03:31:56.657Z,1011.69
2022-11-25T03:32:56.860Z,1011.64
2022-11-25T03:33:57.113Z,1011.63
2022-11-25T03:34:57.391Z,1011.60
2022-11-25T03:35:57.641Z,1011.64
2022-11-25T03:36:57.935Z,1011.65
2022-11-25T03:37:58.208Z,1011.68
2022-11-25T03:38:58.456Z,1011.68
2022-11-25T03:39:58.681Z,1011.71
2022-11-25T03:40:58.962Z,1011.67
2022-11-25T03:41:59.182Z,1011.67
2022-11-25T03:42:59.474Z,1011.71
2022-11-25T03:43:59.813Z,1011.79
2022-11-25T03:45:00.042Z,1011.79
2022-11-25T03:46:00.352Z,1011.80
2022-11-25T03:47:00.613Z,1011.82
2022-11-25T03:48:00.863Z,1011.81
2022-11-25T03:49:01.102Z,1011.86
2022-11-25T03:50:01.383Z,1011.83
2022-11-25T03:51:01.607Z,1011.82
2022-11-25T03:52:01.972Z,1011.83
2022-11-25T03:53:02.203Z,1011.82
2022-11-25T03:54:02.462Z,1011.80
2022-11-25T03:55:02.683Z,1011.86
2022-11-25T03:56:02.954Z,1011.85
2022-11-25T03:57:03.199Z,1011.88
2022-11-25T03:58:03.443Z,1011.86
2022-11-25T03:59:03.756Z,1011.79
2022-11-25T04:00:03.972Z,1011.84
2022-11-25T04:01:04.296Z,1011.84
2022-11-25T04:02:04.594Z,1011.81
2022-11-25T04:03:04.848Z,1011.81
2022-11-25T04:04:05.104Z,1011.81
2022-11-25T04:05:05.360Z,1011.84
2022-11-25T04:06:05.639Z,1011.86
2022-11-25T04:07:05.897Z,1011.88
2022-11-25T04:08:06.194Z,1011.87
2022-11-25T04:09:06.877Z,1011.88
2022-11-25T04:10:06.795Z,1011.88
2022-11-25T04:11:07.025Z,1011.88
2022-11-25T04:12:07.274Z,1011.87
2022-11-25T04:13:07.537Z,1011.91
2022-11-25T04:14:07.816Z,1011.89
2022-11-25T04:15:08.106Z,1011.88
2022-11-25T04:16:08.347Z,1011.89
2022-11-25T04:17:08.645Z,1011.86
2022-11-25T04:18:08.911Z,1011.92
2022-11-25T04:19:09.194Z,1011.92
2022-11-25T04:20:09.439Z,1011.89
2022-11-25T04:21:09.679Z,1011.90
2022-11-25T04:22:09.968Z,1011.89
2022-11-25T04:23:10.212Z,1011.90
2022-11-25T04:24:10.468Z,1011.84
2022-11-25T04:25:10.715Z,1011.95
2022-11-25T04:26:10.958Z,1011.90
2022-11-25T04:27:11.186Z,1011.87
2022-11-25T04:28:11.442Z,1011.91
2022-11-25T04:29:11.681Z,1011.86
2022-11-25T04:30:11.930Z,1011.87
2022-11-25T04:31:12.285Z,1011.94
2022-11-25T04:32:12.419Z,1011.90
2022-11-25T04:33:12.679Z,1011.90
2022-11-25T04:34:12.917Z,1011.90
2022-11-25T04:35:13.168Z,1011.94
2022-11-25T04:36:13.390Z,1011.88
2022-11-25T04:37:13.642Z,1011.91
2022-11-25T04:38:13.869Z,1011.93
2022-11-25T04:39:14.136Z,1011.91
2022-11-25T04:40:14.362Z,1011.85
2022-11-25T04:41:14.623Z,1011.94
2022-11-25T04:42:14.852Z,1011.89
2022-11-25T04:43:15.100Z,1011.96
2022-11-25T04:44:15.349Z,1011.97
2022-11-25T04:45:23.841Z,1012.02
2022-11-25T04:46:16.862Z,1011.97
2022-11-25T04:47:16.092Z,1011.94
2022-11-25T04:48:16.403Z,1012.01
2022-11-25T04:49:16.641Z,1011.98
2022-11-25T04:50:16.876Z,1011.98
2022-11-25T04:51:17.144Z,1012.00
2022-11-25T04:52:17.383Z,1012.09
2022-11-25T04:53:17.613Z,1012.06
2022-11-25T04:54:17.851Z,1012.04
2022-11-25T04:55:18.084Z,1012.08
2022-11-25T04:56:18.313Z,1012.10
2022-11-25T04:57:18.577Z,1012.05
2022-11-25T04:58:18.823Z,1012.12
2022-11-25T04:59:19.097Z,1012.11
2022-11-25T05:00:19.352Z,1012.16
2022-11-25T05:01:19.676Z,1012.18
2022-11-25T05:02:19.848Z,1012.18
2022-11-25T05:03:20.084Z,1012.21
2022-11-25T05:04:20.369Z,1012.17
2022-11-25T05:05:20.605Z,1012.22
2022-11-25T05:06:20.854Z,1012.15
2022-11-25T05:07:22.080Z,1012.18
2022-11-25T05:08:21.417Z,1012.26
2022-11-25T05:09:21.668Z,1012.20
2022-11-25T05:10:21.897Z,1012.21
2022-11-25T05:11:22.146Z,1012.21
2022-11-25T05:12:22.417Z,1012.26
2022-11-25T05:13:22.671Z,1012.28
2022-11-25T05:14:22.914Z,1012.27
2022-11-25T05:15:23.168Z,1012.31
2022-11-25T05:16:23.515Z,1012.28
2022-11-25T05:17:23.759Z,1012.33
2022-11-25T05:18:24.009Z,1012.36
2022-11-25T05:19:24.288Z,1012.44
2022-11-25T05:20:24.532Z,1012.50
2022-11-25T05:21:24.837Z,1012.56
2022-11-25T05:22:25.191Z,1012.56
2022-11-25T05:23:25.478Z,1012.53
2022-11-25T05:24:25.740Z,1012.50
2022-11-25T05:25:26.025Z,1012.48
2022-11-25T05:26:26.268Z,1012.49
2022-11-25T05:27:26.506Z,1012.48
2022-11-25T05:28:26.763Z,1012.58
2022-11-25T05:29:27.046Z,1012.64
2022-11-25T05:30:27.377Z,1012.64
2022-11-25T05:31:27.546Z,1012.61
2022-11-25T05:32:27.779Z,1012.56
2022-11-25T05:33:28.026Z,1012.49
2022-11-25T05:34:28.310Z,1012.50
2022-11-25T05:35:28.558Z,1012.52
2022-11-25T05:36:28.799Z,1012.55
2022-11-25T05:37:29.042Z,1012.59
2022-11-25T05:38:29.288Z,1012.57
2022-11-25T05:39:29.594Z,1012.52
2022-11-25T05:40:29.800Z,1012.50
2022-11-25T05:41:30.099Z,1012.50
2022-11-25T05:42:30.336Z,1012.53
2022-11-25T05:43:30.592Z,1012.60
2022-11-25T05:44:30.842Z,1012.54
2022-11-25T05:45:31.082Z,1012.53
2022-11-25T05:46:31.373Z,1012.46
2022-11-25T05:47:31.632Z,1012.50
2022-11-25T05:48:31.872Z,1012.48
2022-11-25T05:49:32.123Z,1012.50
2022-11-25T05:50:32.383Z,1012.54
2022-11-25T05:51:32.632Z,1012.57
2022-11-25T05:52:32.875Z,1012.57
2022-11-25T05:53:33.116Z,1012.53
2022-11-25T05:54:33.475Z,1012.55
2022-11-25T05:55:33.592Z,1012.50
2022-11-25T05:56:33.851Z,1012.54
2022-11-25T05:57:34.093Z,1012.58
2022-11-25T05:58:34.387Z,1012.56
2022-11-25T05:59:34.612Z,1012.62
2022-11-25T06:00:34.863Z,1012.63
2022-11-25T06:01:35.091Z,1012.60
2022-11-25T06:02:35.423Z,1012.62
2022-11-25T06:03:35.718Z,1012.67
2022-11-25T06:04:36.329Z,1012.64
2022-11-25T06:05:36.205Z,1012.62
2022-11-25T06:06:36.435Z,1012.71
2022-11-25T06:07:36.816Z,1012.67
2022-11-25T06:08:37.050Z,1012.69
2022-11-25T06:09:37.339Z,1012.69
2022-11-25T06:10:37.574Z,1012.72
2022-11-25T06:11:37.862Z,1012.72
2022-11-25T06:12:38.113Z,1012.71
2022-11-25T06:13:38.346Z,1012.71
2022-11-25T06:14:38.763Z,1012.69
2022-11-25T06:15:38.898Z,1012.64
2022-11-25T06:16:39.127Z,1012.64
2022-11-25T06:17:39.385Z,1012.63
2022-11-25T06:18:39.616Z,1012.69
2022-11-25T06:19:39.898Z,1012.67
2022-11-25T06:20:40.136Z,1012.70
2022-11-25T06:21:40.367Z,1012.67
2022-11-25T06:22:40.618Z,1012.72
2022-11-25T06:23:40.838Z,1012.70
2022-11-25T06:24:41.208Z,1012.79
2022-11-25T06:25:41.471Z,1012.70
2022-11-25T06:26:41.738Z,1012.72
2022-11-25T06:28:10.611Z,1012.68
2022-11-25T06:28:43.215Z,1012.73
2022-11-25T06:29:42.507Z,1012.78
2022-11-25T06:30:42.748Z,1012.92
2022-11-25T06:31:43.050Z,1012.84
2022-11-25T06:32:43.263Z,1012.88
2022-11-25T06:33:43.619Z,1012.91
2022-11-25T06:34:43.890Z,1012.96
2022-11-25T06:35:44.148Z,1012.91
2022-11-25T06:36:44.441Z,1012.91
2022-11-25T06:37:44.672Z,1012.85
2022-11-25T06:38:44.999Z,1012.88
2022-11-25T06:39:45.357Z,1012.89
2022-11-25T06:40:45.490Z,1012.82
2022-11-25T06:41:45.753Z,1012.80
2022-11-25T06:42:45.991Z,1012.79
2022-11-25T06:43:46.250Z,1012.84
2022-11-25T06:44:46.544Z,1012.79
2022-11-25T06:45:46.810Z,1012.81
2022-11-25T06:46:47.091Z,1012.82
2022-11-25T06:47:47.392Z,1012.78
2022-11-25T06:48:47.621Z,1012.84
2022-11-25T06:49:47.892Z,1012.80
2022-11-25T06:50:48.132Z,1012.84
2022-11-25T06:51:48.462Z,1012.77
2022-11-25T06:52:48.701Z,1012.84
2022-11-25T06:53:49.039Z,1012.84
2022-11-25T06:54:49.320Z,1012.83
2022-11-25T06:55:49.564Z,1012.78
2022-11-25T06:56:49.827Z,1012.88
2022-11-25T06:57:53.253Z,1012.90
2022-11-25T06:58:50.385Z,1012.92
2022-11-25T06:59:50.672Z,1012.99
2022-11-25T07:00:50.904Z,1012.90
2022-11-25T07:01:51.195Z,1012.91
2022-11-25T07:02:51.528Z,1012.90
2022-11-25T07:03:51.774Z,1012.96
2022-11-25T07:04:52.066Z,1012.96
2022-11-25T07:05:52.394Z,1012.98
2022-11-25T07:06:52.667Z,1012.96
2022-11-25T07:07:52.994Z,1012.89
2022-11-25T07:08:53.162Z,1012.89
2022-11-25T07:09:53.450Z,1012.91
2022-11-25T07:10:53.707Z,1012.92
2022-11-25T07:11:53.964Z,1012.89
2022-11-25T07:12:54.226Z,1012.98
2022-11-25T07:13:54.476Z,1012.96
2022-11-25T07:14:54.740Z,1012.94
2022-11-25T07:15:55.065Z,1012.99
2022-11-25T07:16:55.372Z,1012.91
2022-11-25T07:17:55.629Z,1012.96
2022-11-25T07:18:56.000Z,1012.90
2022-11-25T07:19:56.151Z,1012.98
2022-11-25T07:20:56.408Z,1012.98
2022-11-25T07:21:56.671Z,1012.98
2022-11-25T07:22:56.921Z,1012.99
2022-11-25T07:23:57.186Z,1012.95
2022-11-25T07:24:57.450Z,1012.99
2022-11-25T07:25:57.718Z,1013.01
2022-11-25T07:26:57.976Z,1013.05
2022-11-25T07:27:58.247Z,1012.98
2022-11-25T07:28:58.532Z,1012.92
2022-11-25T07:30:41.119Z,1012.88
2022-11-25T07:32:02.478Z,1012.95
2022-11-25T07:33:00.654Z,1013.00
2022-11-25T07:33:59.967Z,1012.98
2022-11-25T07:35:00.246Z,1012.95
2022-11-25T07:36:00.493Z,1012.97
2022-11-25T07:37:00.740Z,1012.92
2022-11-25T07:38:01.994Z,1012.96
2022-11-25T07:39:01.313Z,1012.91
2022-11-25T07:40:01.597Z,1012.97
2022-11-25T07:41:01.859Z,1012.96
2022-11-25T07:42:02.113Z,1012.91
2022-11-25T07:43:02.375Z,1012.94
2022-11-25T07:44:02.625Z,1012.93
2022-11-25T07:45:02.922Z,1012.90
2022-11-25T07:46:03.236Z,1012.94
2022-11-25T07:47:03.494Z,1012.88
2022-11-25T07:48:03.744Z,1012.90
2022-11-25T07:49:04.019Z,1012.97
2022-11-25T07:50:04.292Z,1012.92
2022-11-25T07:51:04.534Z,1012.99
2022-11-25T07:52:04.793Z,1012.98
2022-11-25T07:53:05.057Z,1012.99
2022-11-25T07:54:05.314Z,1012.95
2022-11-25T07:55:05.585Z,1012.98
2022-11-25T07:56:05.847Z,1012.97
2022-11-25T07:57:06.150Z,1013.04
2022-11-25T07:58:06.448Z,1013.02
2022-11-25T07:59:06.763Z,1013.00
2022-11-25T08:00:07.066Z,1012.97
2022-11-25T08:01:07.387Z,1012.94
2022-11-25T08:02:07.737Z,1012.96
2022-11-25T08:03:08.102Z,1012.96
2022-11-25T08:04:08.318Z,1013.02
2022-11-25T08:05:08.598Z,1013.03
2022-11-25T08:06:08.948Z,1012.99
2022-11-25T08:07:09.195Z,1013.00
2022-11-25T08:08:09.458Z,1012.94
2022-11-25T08:09:09.658Z,1012.91
2022-11-25T08:10:09.976Z,1012.90
2022-11-25T08:11:10.313Z,1012.90
2022-11-25T08:12:10.648Z,1012.99
2022-11-25T08:13:10.971Z,1012.93
2022-11-25T08:14:11.162Z,1012.92
2022-11-25T08:15:11.826Z,1012.93
2022-11-25T08:16:12.044Z,1012.98
2022-11-25T08:17:12.207Z,1012.98
2022-11-25T08:18:12.390Z,1012.98
2022-11-25T08:19:14.153Z,1012.97
2022-11-25T08:20:13.289Z,1013.00
2022-11-25T08:21:13.143Z,1013.06
2022-11-25T08:22:13.416Z,1013.01
2022-11-25T08:23:13.707Z,1013.02
2022-11-25T08:24:13.992Z,1013.08
2022-11-25T08:25:14.299Z,1013.07
2022-11-25T08:26:14.561Z,1013.05
2022-11-25T08:27:14.830Z,1013.09
2022-11-25T08:28:15.112Z,1013.06
2022-11-25T08:29:15.384Z,1013.09
2022-11-25T08:30:15.715Z,1013.10
2022-11-25T08:31:16.035Z,1013.08
2022-11-25T08:32:16.354Z,1013.10
2022-11-25T08:33:16.659Z,1013.11
2022-11-25T08:34:17.765Z,1013.08
2022-11-25T08:35:17.241Z,1013.09
2022-11-25T08:36:17.534Z,1013.10
2022-11-25T08:37:17.845Z,1013.05
2022-11-25T08:38:18.167Z,1013.05
2022-11-25T08:40:19.835Z,1013.14
2022-11-25T08:41:19.067Z,1013.17
2022-11-25T08:42:19.344Z,1013.16
2022-11-25T08:43:19.664Z,1013.16
2022-11-25T08:44:19.943Z,1013.12
2022-11-25T08:45:20.244Z,1013.14
2022-11-25T08:46:20.568Z,1013.17
2022-11-25T08:47:20.875Z,1013.12
2022-11-25T08:48:21.154Z,1012.99
2022-11-25T08:49:21.427Z,1013.02
2022-11-25T08:50:21.757Z,1013.00
2022-11-25T08:51:22.077Z,1013.02
2022-11-25T08:52:22.339Z,1013.03
2022-11-25T08:53:22.655Z,1012.97
2022-11-25T08:54:22.947Z,1012.97
2022-11-25T08:55:23.268Z,1012.91
2022-11-25T08:56:26.194Z,1013.02
2022-11-25T08:57:23.848Z,1012.93
2022-11-25T08:58:24.157Z,1012.95
2022-11-25T08:59:24.428Z,1012.96
2022-11-25T09:00:24.729Z,1012.94
2022-11-25T09:01:25.171Z,1012.95
2022-11-25T09:02:26.107Z,1012.98
2022-11-25T09:03:25.735Z,1013.02
2022-11-25T09:04:25.868Z,1013.06
2022-11-25T09:05:26.168Z,1013.09
2022-11-25T09:06:26.572Z,1013.08
2022-11-25T09:07:30.667Z,1013.09
2022-11-25T09:08:27.010Z,1013.09
2022-11-25T09:09:27.300Z,1013.08
2022-11-25T09:10:27.582Z,1013.08
2022-11-25T09:11:27.997Z,1013.17
2022-11-25T09:12:28.148Z,1013.13
2022-11-25T09:13:28.434Z,1013.13
2022-11-25T09:14:28.770Z,1013.17
2022-11-25T09:15:28.995Z,1013.17
2022-11-25T09:16:29.362Z,1013.15
2022-11-25T09:17:29.562Z,1013.14
2022-11-25T09:18:29.851Z,1013.21
2022-11-25T09:19:30.133Z,1013.11
2022-11-25T09:20:30.444Z,1013.15
2022-11-25T09:21:30.747Z,1013.19
2022-11-25T09:22:31.032Z,1013.21
2022-11-25T09:23:31.303Z,1013.20
2022-11-25T09:24:31.601Z,1013.21
2022-11-25T09:25:31.883Z,1013.22
2022-11-25T09:26:32.166Z,1013.16
2022-11-25T09:27:32.537Z,1013.16
2022-11-25T09:28:32.849Z,1013.16
2022-11-25T09:29:42.129Z,1013.18
2022-11-25T09:30:33.198Z,1013.18
2022-11-25T09:31:33.617Z,1013.16
2022-11-25T09:32:33.797Z,1013.21
2022-11-25T09:33:34.056Z,1013.27
2022-11-25T09:34:34.491Z,1013.27
2022-11-25T09:35:34.626Z,1013.35
2022-11-25T09:36:34.916Z,1013.35
2022-11-25T09:37:35.233Z,1013.38
2022-11-25T09:38:38.874Z,1013.43
2022-11-25T09:39:37.222Z,1013.44
2022-11-25T09:40:36.147Z,1013.44
2022-11-25T09:41:36.338Z,1013.41
2022-11-25T09:42:36.838Z,1013.43
2022-11-25T09:43:37.829Z,1013.41
2022-11-25T09:44:37.156Z,1013.48
2022-11-25T09:45:37.500Z,1013.40
2022-11-25T09:46:37.751Z,1013.45
2022-11-25T09:47:41.156Z,1013.38
2022-11-25T09:48:39.209Z,1013.43
2022-11-25T09:49:38.709Z,1013.41
2022-11-25T09:50:38.706Z,1013.34
2022-11-25T09:51:38.978Z,1013.36
2022-11-25T09:52:39.241Z,1013.40
2022-11-25T09:53:39.531Z,1013.40
2022-11-25T09:54:39.922Z,1013.39
2022-11-25T09:55:40.151Z,1013.29
2022-11-25T09:56:40.349Z,1013.30
2022-11-25T09:57:40.640Z,1013.34
2022-11-25T09:58:40.968Z,1013.38
2022-11-25T09:59:41.271Z,1013.33
2022-11-25T10:00:41.550Z,1013.39
2022-11-25T10:01:42.002Z,1013.38
2022-11-25T10:02:42.250Z,1013.34
2022-11-25T10:03:42.579Z,1013.31
2022-11-25T10:04:42.744Z,1013.35
2022-11-25T10:05:43.043Z,1013.35
2022-11-25T10:06:43.458Z,1013.38
2022-11-25T10:07:43.665Z,1013.40
2022-11-25T10:08:43.831Z,1013.37
2022-11-25T10:09:44.374Z,1013.36
2022-11-25T10:10:44.395Z,1013.41
2022-11-25T10:11:44.688Z,1013.40
2022-11-25T10:12:45.006Z,1013.39
2022-11-25T10:13:45.282Z,1013.35
2022-11-25T10:14:46.114Z,1013.37
2022-11-25T10:15:45.973Z,1013.36
2022-11-25T10:16:51.265Z,1013.36
2022-11-25T10:17:47.423Z,1013.39
2022-11-25T10:18:47.411Z,1013.39
2022-11-25T10:19:46.957Z,1013.34
2022-11-25T10:20:47.241Z,1013.41
2022-11-25T10:21:47.543Z,1013.42
2022-11-25T10:22:47.883Z,1013.37
2022-11-25T10:23:48.164Z,1013.35
2022-11-25T10:24:48.466Z,1013.38
2022-11-25T10:25:48.747Z,1013.40
2022-11-25T10:26:49.026Z,1013.38
2022-11-25T10:27:49.357Z,1013.42
2022-11-25T10:28:49.653Z,1013.47
2022-11-25T10:29:49.999Z,1013.49
2022-11-25T10:30:50.266Z,1013.45
2022-11-25T10:31:50.573Z,1013.41
2022-11-25T10:32:50.906Z,1013.47
2022-11-25T10:33:51.050Z,1013.46
2022-11-25T10:34:51.497Z,1013.42
2022-11-25T10:35:51.647Z,1013.39
2022-11-25T10:36:51.964Z,1013.41
2022-11-25T10:37:52.292Z,1013.42
2022-11-25T10:38:52.572Z,1013.34
2022-11-25T10:39:52.909Z,1013.35
2022-11-25T10:40:53.218Z,1013.38
2022-11-25T10:41:53.536Z,1013.34
2022-11-25T10:42:53.828Z,1013.32
2022-11-25T10:43:54.178Z,1013.33
2022-11-25T10:44:54.400Z,1013.33
2022-11-25T10:45:54.721Z,1013.35
2022-11-25T10:47:13.559Z,1013.36
2022-11-25T10:47:56.434Z,1013.40
2022-11-25T10:48:55.563Z,1013.37
2022-11-25T10:49:55.823Z,1013.36
2022-11-25T10:50:56.037Z,1013.39
2022-11-25T10:51:56.321Z,1013.35
2022-11-25T10:52:56.768Z,1013.39
2022-11-25T10:53:56.952Z,1013.39
2022-11-25T10:54:57.120Z,1013.35
2022-11-25T10:55:57.421Z,1013.32
2022-11-25T10:56:57.774Z,1013.39
2022-11-25T10:57:57.973Z,1013.33
2022-11-25T10:58:58.233Z,1013.36
2022-11-25T10:59:58.532Z,1013.33
2022-11-25T11:00:58.905Z,1013.34
2022-11-25T11:01:59.142Z,1013.33
2022-11-25T11:02:59.521Z,1013.30
2022-11-25T11:03:59.639Z,1013.26
2022-11-25T11:05:00.696Z,1013.25
2022-11-25T11:06:00.175Z,1013.23
2022-11-25T11:07:00.462Z,1013.28
2022-11-25T11:08:00.830Z,1013.26
2022-11-25T11:09:01.003Z,1013.27
2022-11-25T11:10:01.294Z,1013.30
2022-11-25T11:11:01.584Z,1013.32
2022-11-25T11:12:01.884Z,1013.32
2022-11-25T11:13:02.155Z,1013.35
2022-11-25T11:14:02.424Z,1013.39
2022-11-25T11:15:02.778Z,1013.41
2022-11-25T11:16:03.070Z,1013.39
2022-11-25T11:17:03.357Z,1013.35
2022-11-25T11:18:03.676Z,1013.33
2022-11-25T11:19:03.958Z,1013.36
2022-11-25T11:20:04.255Z,1013.31
2022-11-25T11:21:04.547Z,1013.32
2022-11-25T11:22:05.537Z,1013.32
2022-11-25T11:23:08.940Z,1013.19
2022-11-25T11:24:05.441Z,1013.26
2022-11-25T11:25:05.748Z,1013.20
2022-11-25T11:26:06.038Z,1013.24
2022-11-25T11:27:06.300Z,1013.24
2022-11-25T11:28:06.648Z,1013.30
2022-11-25T11:29:12.666Z,1013.23
2022-11-25T11:30:08.240Z,1013.29
2022-11-25T11:31:07.493Z,1013.28
2022-11-25T11:32:07.777Z,1013.29
2022-11-25T11:33:08.056Z,1013.33
2022-11-25T11:34:08.329Z,1013.24
2022-11-25T11:35:08.639Z,1013.26
2022-11-25T11:36:08.878Z,1013.25
2022-11-25T11:37:09.158Z,1013.25
2022-11-25T11:38:09.449Z,1013.19
2022-11-25T11:39:09.761Z,1013.26
2022-11-25T11:40:10.076Z,1013.25
2022-11-25T11:41:10.352Z,1013.26
2022-11-25T11:42:10.669Z,1013.27
2022-11-25T11:43:10.961Z,1013.24
2022-11-25T11:44:11.241Z,1013.28
2022-11-25T11:45:11.535Z,1013.29
2022-11-25T11:46:11.898Z,1013.27
2022-11-25T11:47:12.083Z,1013.26
2022-11-25T11:48:12.379Z,1013.29
2022-11-25T11:49:12.643Z,1013.32
2022-11-25T11:50:12.964Z,1013.27
2022-11-25T11:51:13.239Z,1013.25
2022-11-25T11:52:13.491Z,1013.20
2022-11-25T11:53:14.412Z,1013.23
2022-11-25T11:54:14.163Z,1013.24
2022-11-25T11:55:14.488Z,1013.27
2022-11-25T11:57:16.073Z,1013.24
2022-11-25T11:58:15.293Z,1013.21
2022-11-25T11:59:15.592Z,1013.21
2022-11-25T12:00:16.333Z,1013.15
2022-11-25T12:01:16.192Z,1013.17
2022-11-25T12:02:16.569Z,1013.13
2022-11-25T12:03:16.865Z,1013.08
2022-11-25T12:04:17.076Z,1013.08
2022-11-25T12:05:17.426Z,1013.11
2022-11-25T12:06:17.648Z,1013.12
2022-11-25T12:07:17.867Z,1013.10
2022-11-25T12:08:18.136Z,1013.06
2022-11-25T12:09:18.398Z,1013.17
2022-11-25T12:10:18.705Z,1013.13
2022-11-25T12:11:18.985Z,1013.24